createdAt,value
2022-10-09T00:00:46.355Z,4.350
2022-10-09T00:01:36.307Z,5.800
2022-10-09T00:02:25.993Z,5.050
2022-10-09T00:04:45.121Z,4.550
2022-10-09T00:06:02.233Z,5.100
2022-10-09T00:06:55.248Z,5.350
2022-10-09T00:07:43.581Z,3.700
2022-10-09T00:08:36.924Z,4.500
2022-10-09T00:09:39.250Z,7.300
2022-10-09T00:10:20.544Z,5.000
2022-10-09T00:11:55.289Z,4.750
2022-10-09T00:12:34.566Z,3.800
2022-10-09T00:14:10.189Z,4.700
2022-10-09T00:14:46.719Z,4.800
2022-10-09T00:15:32.649Z,4.200
2022-10-09T00:16:36.546Z,4.800
2022-10-09T00:17:38.626Z,4.100
2022-10-09T00:18:50.823Z,5.250
2022-10-09T00:19:34.315Z,5.300
2022-10-09T00:21:13.941Z,3.900
2022-10-09T00:21:46.243Z,4.600
2022-10-09T00:22:48.854Z,4.100
2022-10-09T00:23:31.976Z,5.100
2022-10-09T00:24:29.085Z,4.100
2022-10-09T00:26:32.521Z,5.050
2022-10-09T00:27:26.525Z,4.050
2022-10-09T00:28:55.951Z,4.300
2022-10-09T00:29:48.564Z,5.100
2022-10-09T00:30:37.474Z,5.400
2022-10-09T00:31:43.630Z,5.100
2022-10-09T00:32:38.035Z,4.700
2022-10-09T00:33:42.764Z,4.700
2022-10-09T00:34:28.570Z,5.500
2022-10-09T00:36:02.461Z,5.400
2022-10-09T00:36:52.113Z,6.200
2022-10-09T00:37:23.966Z,5.100
2022-10-09T00:38:23.986Z,4.000
2022-10-09T00:39:33.081Z,4.100
2022-10-09T00:40:27.925Z,4.200
2022-10-09T00:41:29.309Z,4.900
2022-10-09T00:43:30.171Z,4.050
2022-10-09T00:44:41.295Z,4.900
2022-10-09T00:45:27.907Z,4.600
2022-10-09T00:46:33.819Z,4.100
2022-10-09T00:47:26.814Z,4.600
2022-10-09T00:48:24.154Z,3.850
2022-10-09T00:49:41.572Z,4.000
2022-10-09T00:51:44.030Z,4.850
2022-10-09T00:52:03.770Z,4.900
2022-10-09T00:53:38.520Z,5.400
2022-10-09T00:54:24.609Z,4.900
2022-10-09T00:55:25.158Z,5.500
2022-10-09T00:56:26.069Z,5.200
2022-10-09T00:59:33.264Z,5.700
2022-10-09T01:01:15.542Z,4.450
2022-10-09T01:02:37.205Z,4.350
2022-10-09T01:02:55.997Z,5.500
2022-10-09T02:28:56.329Z,4.000
2022-10-09T02:29:38.060Z,4.800
2022-10-09T02:30:23.800Z,6.000
2022-10-09T02:31:42.147Z,5.400
2022-10-09T02:32:37.687Z,3.950
2022-10-09T02:33:28.215Z,5.900
2022-10-09T02:34:31.659Z,3.500
2022-10-09T02:35:26.302Z,5.950
2022-10-09T04:20:26.338Z,4.500
2022-10-09T04:21:40.324Z,4.800
2022-10-09T04:22:25.236Z,4.600
2022-10-09T04:24:06.927Z,5.450
2022-10-09T04:24:53.536Z,4.800
2022-10-09T04:25:37.094Z,4.800
2022-10-09T04:26:39.026Z,6.500
2022-10-09T04:27:37.653Z,4.800
2022-10-09T04:28:41.728Z,4.300
2022-10-09T04:30:01.880Z,5.000
2022-10-09T04:31:47.277Z,4.400
2022-10-09T04:31:55.650Z,5.400
2022-10-09T04:33:27.091Z,5.700
2022-10-09T04:34:24.772Z,5.200
2022-10-09T04:35:38.177Z,4.750
2022-10-09T04:36:35.285Z,6.800
2022-10-09T04:37:59.097Z,7.650
2022-10-09T04:38:51.263Z,4.100
2022-10-09T04:39:36.716Z,5.900
2022-10-09T04:40:40.801Z,7.200
2022-10-09T04:41:42.494Z,7.100
2022-10-09T04:42:35.469Z,4.900
2022-10-09T04:43:29.934Z,4.600
2022-10-09T04:44:33.013Z,5.500
2022-10-09T04:45:37.936Z,6.200
2022-10-09T04:46:45.101Z,4.750
2022-10-09T04:47:50.761Z,5.200
2022-10-09T04:48:34.568Z,4.850
2022-10-09T04:49:28.708Z,6.500
2022-10-09T04:50:30.684Z,4.650
2022-10-09T04:51:27.508Z,6.200
2022-10-09T04:52:57.616Z,4.300
2022-10-09T04:53:48.664Z,5.200
2022-10-09T04:54:32.306Z,4.500
2022-10-09T04:55:41.690Z,4.800
2022-10-09T04:56:33.024Z,5.950
2022-10-09T04:57:23.996Z,6.200
2022-10-09T04:58:39.232Z,5.000
2022-10-09T05:00:44.434Z,5.600
2022-10-09T05:00:51.535Z,6.500
2022-10-09T05:01:27.749Z,7.400
2022-10-09T05:02:27.245Z,5.600
2022-10-09T05:03:36.269Z,5.400
2022-10-09T05:04:28.614Z,7.150
2022-10-09T05:05:23.397Z,5.600
2022-10-09T05:07:30.249Z,6.150
2022-10-09T05:08:42.960Z,4.500
2022-10-09T05:09:24.435Z,5.700
2022-10-09T05:10:53.062Z,5.150
2022-10-09T05:11:42.632Z,6.200
2022-10-09T05:12:22.719Z,4.500
2022-10-09T05:13:28.137Z,4.300
2022-10-09T05:14:50.100Z,4.700
2022-10-09T05:15:40.006Z,4.600
2022-10-09T05:16:28.049Z,5.000
2022-10-09T05:17:51.172Z,6.000
2022-10-09T05:18:30.082Z,5.900
2022-10-09T05:19:35.929Z,5.400
2022-10-09T05:20:34.026Z,6.400
2022-10-09T05:21:32.065Z,6.200
2022-10-09T05:22:46.833Z,5.400
2022-10-09T05:23:37.767Z,4.800
2022-10-09T05:24:35.807Z,5.250
2022-10-09T05:25:43.843Z,5.850
2022-10-09T05:26:37.057Z,4.800
2022-10-09T05:27:27.020Z,5.800
2022-10-09T05:28:32.820Z,6.600
2022-10-09T05:29:29.024Z,7.550
2022-10-09T05:30:46.399Z,5.900
2022-10-09T05:31:50.038Z,5.000
2022-10-09T05:32:44.237Z,5.950
2022-10-09T05:33:38.999Z,6.600
2022-10-09T05:34:28.807Z,5.700
2022-10-09T05:35:25.221Z,8.500
2022-10-09T05:36:31.791Z,7.100
2022-10-09T05:37:37.245Z,5.200
2022-10-09T05:38:44.579Z,7.550
2022-10-09T05:39:58.838Z,5.900
2022-10-09T05:40:43.300Z,6.800
2022-10-09T05:41:36.787Z,5.300
2022-10-09T05:42:29.011Z,5.500
2022-10-09T05:43:31.263Z,6.600
2022-10-09T05:44:31.068Z,9.000
2022-10-09T05:45:35.013Z,8.200
2022-10-09T05:46:28.617Z,5.700
2022-10-09T05:47:38.946Z,6.000
2022-10-09T05:48:37.656Z,4.200
2022-10-09T05:49:30.257Z,5.000
2022-10-09T05:50:30.295Z,5.800
2022-10-09T05:51:27.419Z,7.500
2022-10-09T05:52:31.472Z,6.500
2022-10-09T05:54:02.788Z,7.500
2022-10-09T05:54:54.753Z,7.800
2022-10-09T05:55:42.026Z,6.200
2022-10-09T05:56:34.136Z,7.000
2022-10-09T05:57:22.727Z,7.800
2022-10-09T05:58:34.202Z,6.150
2022-10-09T05:59:24.584Z,6.600
2022-10-09T06:01:20.358Z,8.350
2022-10-09T06:03:28.834Z,7.000
2022-10-09T06:04:34.133Z,5.500
2022-10-09T06:05:25.873Z,6.000
2022-10-09T06:06:27.279Z,4.900
2022-10-09T06:07:26.941Z,5.950
2022-10-09T06:09:10.098Z,4.100
2022-10-09T06:09:47.011Z,4.400
2022-10-09T06:10:33.340Z,6.700
2022-10-09T06:11:37.101Z,6.100
2022-10-09T06:12:30.014Z,4.700
2022-10-09T06:13:25.324Z,5.700
2022-10-09T06:14:32.596Z,4.500
2022-10-09T06:16:17.933Z,6.600
2022-10-09T06:16:48.762Z,8.550
2022-10-09T06:17:35.996Z,5.700
2022-10-09T06:18:43.521Z,6.700
2022-10-09T06:19:57.430Z,6.400
2022-10-09T06:20:26.434Z,7.550
2022-10-09T06:21:27.791Z,6.500
2022-10-09T06:22:23.625Z,6.000
2022-10-09T06:23:57.369Z,6.650
2022-10-09T06:24:44.343Z,6.300
2022-10-09T06:25:27.225Z,5.000
2022-10-09T06:26:42.355Z,8.300
2022-10-09T06:27:33.558Z,8.050
2022-10-09T06:28:33.657Z,7.300
2022-10-09T06:29:36.737Z,7.450
2022-10-09T06:31:02.679Z,6.100
2022-10-09T06:32:11.453Z,6.800
2022-10-09T06:32:29.989Z,6.800
2022-10-09T06:33:54.327Z,7.900
2022-10-09T06:34:41.164Z,9.300
2022-10-09T06:35:31.357Z,8.650
2022-10-09T06:36:20.436Z,9.100
2022-10-09T06:37:24.352Z,7.500
2022-10-09T06:38:49.645Z,8.800
2022-10-09T06:39:30.570Z,8.700
2022-10-09T06:40:48.935Z,8.000
2022-10-09T06:41:39.088Z,6.300
2022-10-09T06:42:28.098Z,10.300
2022-10-09T06:43:27.002Z,8.800
2022-10-09T06:44:26.241Z,8.000
2022-10-09T06:45:54.847Z,7.000
2022-10-09T06:46:35.979Z,8.350
2022-10-09T06:47:56.947Z,6.800
2022-10-09T06:48:31.020Z,9.500
2022-10-09T06:49:40.430Z,8.300
2022-10-09T06:50:33.064Z,10.600
2022-10-09T06:51:23.431Z,11.200
2022-10-09T06:52:26.000Z,8.300
2022-10-09T06:53:38.199Z,7.000
2022-10-09T06:54:24.393Z,9.700
2022-10-09T06:56:06.121Z,8.900
2022-10-09T06:56:42.329Z,11.800
2022-10-09T06:57:39.684Z,8.500
2022-10-09T06:58:24.734Z,8.300
2022-10-09T07:00:19.096Z,9.700
2022-10-09T07:00:39.240Z,7.900
2022-10-09T07:01:56.734Z,9.100
2022-10-09T07:02:54.528Z,7.100
2022-10-09T07:03:46.564Z,11.100
2022-10-09T07:04:39.301Z,9.000
2022-10-09T07:05:32.834Z,10.200
2022-10-09T07:06:23.535Z,8.300
2022-10-09T07:07:26.215Z,9.500
2022-10-09T07:08:35.433Z,8.000
2022-10-09T07:09:56.560Z,8.700
2022-10-09T07:10:25.045Z,9.400
2022-10-09T07:11:36.261Z,9.600
2022-10-09T07:12:31.144Z,9.300
2022-10-09T07:13:53.959Z,12.500
2022-10-09T07:14:37.344Z,9.950
2022-10-09T07:15:24.425Z,12.500
2022-10-09T07:16:26.237Z,10.600
2022-10-09T07:17:45.754Z,9.800
2022-10-09T07:18:50.362Z,9.100
2022-10-09T07:19:34.781Z,9.100
2022-10-09T07:20:35.635Z,8.400
2022-10-09T07:21:24.360Z,9.350
2022-10-09T07:22:28.442Z,12.300
2022-10-09T07:23:25.107Z,9.600
2022-10-09T07:25:01.100Z,12.150
2022-10-09T07:25:44.111Z,10.000
2022-10-09T07:26:29.974Z,9.100
2022-10-09T07:27:28.969Z,9.100
2022-10-09T07:28:34.770Z,10.250
2022-10-09T07:29:46.531Z,8.600
2022-10-09T07:31:12.886Z,8.700
2022-10-09T07:32:17.300Z,8.200
2022-10-09T07:32:49.320Z,11.200
2022-10-09T07:33:31.551Z,9.300
2022-10-09T07:34:40.951Z,10.800
2022-10-09T07:35:34.700Z,7.300
2022-10-09T07:36:27.411Z,7.500
2022-10-09T07:37:32.278Z,8.400
2022-10-09T07:38:38.674Z,9.600
2022-10-09T07:39:33.882Z,9.950
2022-10-09T07:40:35.833Z,8.300
2022-10-09T07:41:27.387Z,10.150
2022-10-09T07:42:55.121Z,11.100
2022-10-09T07:43:36.246Z,9.400
2022-10-09T07:44:21.980Z,8.700
2022-10-09T07:45:24.809Z,7.800
2022-10-09T07:46:57.387Z,9.350
2022-10-09T07:47:40.467Z,8.800
2022-10-09T07:48:28.847Z,9.700
2022-10-09T07:49:39.386Z,8.850
2022-10-09T07:50:35.857Z,11.200
2022-10-09T07:51:28.212Z,10.200
2022-10-09T07:52:32.780Z,12.500
2022-10-09T07:53:23.178Z,12.400
2022-10-09T07:54:44.196Z,11.300
2022-10-09T07:55:26.090Z,13.700
2022-10-09T07:57:11.212Z,13.000
2022-10-09T07:57:35.498Z,12.100
2022-10-09T07:58:32.045Z,8.300
2022-10-09T07:59:26.749Z,11.950
2022-10-09T08:00:31.019Z,10.600
2022-10-09T08:01:28.482Z,10.150
2022-10-09T08:02:39.886Z,9.950
2022-10-09T08:03:51.924Z,11.100
2022-10-09T08:04:33.222Z,10.400
2022-10-09T08:05:50.845Z,8.500
2022-10-09T08:06:51.464Z,11.100
2022-10-09T08:08:08.484Z,10.350
2022-10-09T08:08:52.341Z,12.800
2022-10-09T08:09:38.350Z,8.100
2022-10-09T08:10:49.294Z,9.800
2022-10-09T08:11:32.174Z,12.350
2022-10-09T08:12:23.940Z,8.500
2022-10-09T08:13:25.826Z,9.150
2022-10-09T08:14:25.377Z,11.250
2022-10-09T08:15:30.537Z,10.000
2022-10-09T08:16:21.943Z,11.150
2022-10-09T08:17:27.222Z,10.050
2022-10-09T08:18:33.140Z,9.350
2022-10-09T08:19:27.350Z,13.500
2022-10-09T08:20:24.389Z,15.600
2022-10-09T08:21:30.437Z,11.950
2022-10-09T08:22:33.432Z,11.450
2022-10-09T08:23:28.031Z,8.100
2022-10-09T08:24:32.994Z,8.950
2022-10-09T08:25:45.537Z,9.200
2022-10-09T08:26:27.121Z,10.500
2022-10-09T08:27:24.242Z,10.900
2022-10-09T08:28:24.762Z,10.300
2022-10-09T08:29:26.095Z,8.900
2022-10-09T08:30:27.600Z,9.350
2022-10-09T08:31:54.998Z,10.100
2022-10-09T08:32:48.629Z,13.200
2022-10-09T08:33:28.877Z,12.800
2022-10-09T08:34:20.706Z,13.400
2022-10-09T08:35:32.379Z,10.500
2022-10-09T08:36:33.843Z,10.900
2022-10-09T08:37:24.217Z,12.600
2022-10-09T08:38:46.746Z,10.050
2022-10-09T08:39:34.474Z,11.400
2022-10-09T08:40:28.967Z,12.200
2022-10-09T08:41:29.080Z,13.000
2022-10-09T08:43:12.750Z,10.400
2022-10-09T08:43:30.611Z,10.700
2022-10-09T08:44:25.290Z,11.600
2022-10-09T08:45:29.622Z,11.250
2022-10-09T08:46:31.607Z,9.500
2022-10-09T08:47:27.816Z,10.700
2022-10-09T08:48:25.157Z,12.950
2022-10-09T08:49:34.370Z,10.800
2022-10-09T08:50:27.121Z,9.700
2022-10-09T08:51:25.919Z,11.200
2022-10-09T08:52:24.650Z,10.450
2022-10-09T08:53:33.215Z,14.300
2022-10-09T08:54:44.034Z,12.000
2022-10-09T08:55:22.754Z,10.500
2022-10-09T08:56:54.519Z,11.250
2022-10-09T08:57:30.893Z,8.400
2022-10-09T08:58:36.060Z,9.800
2022-10-09T08:59:28.094Z,10.600
2022-10-09T09:00:39.127Z,10.950
2022-10-09T09:01:27.233Z,11.400
2022-10-09T09:02:31.472Z,12.400
2022-10-09T09:03:34.738Z,14.550
2022-10-09T09:04:45.534Z,10.700
2022-10-09T09:05:24.860Z,8.700
2022-10-09T09:06:32.709Z,9.400
2022-10-09T09:07:55.908Z,8.200
2022-10-09T09:08:25.244Z,10.200
2022-10-09T09:09:26.161Z,9.400
2022-10-09T09:10:33.995Z,10.550
2022-10-09T09:11:29.153Z,10.200
2022-10-09T09:12:36.653Z,10.500
2022-10-09T09:13:34.933Z,9.000
2022-10-09T09:14:30.336Z,10.800
2022-10-09T09:15:22.509Z,11.250
2022-10-09T09:16:22.313Z,11.500
2022-10-09T09:17:48.222Z,10.600
2022-10-09T09:18:30.914Z,9.850
2022-10-09T09:19:38.966Z,6.700
2022-10-09T09:20:52.653Z,8.950
2022-10-09T09:21:33.344Z,8.100
2022-10-09T09:22:26.507Z,10.700
2022-10-09T09:23:25.833Z,10.750
2022-10-09T09:24:49.751Z,10.850
2022-10-09T09:25:32.475Z,13.100
2022-10-09T09:26:34.166Z,8.200
2022-10-09T09:27:34.397Z,9.600
2022-10-09T09:29:21.385Z,9.500
2022-10-09T09:29:35.448Z,9.800
2022-10-09T09:31:36.651Z,9.850
2022-10-09T09:32:21.172Z,10.200
2022-10-09T09:33:33.759Z,9.150
2022-10-09T09:34:35.237Z,9.600
2022-10-09T09:35:33.392Z,9.150
2022-10-09T09:36:26.205Z,9.900
2022-10-09T09:37:48.636Z,11.550
2022-10-09T09:39:35.072Z,9.050
2022-10-09T09:40:35.623Z,9.050
2022-10-09T09:40:38.233Z,8.200
2022-10-09T09:40:43.228Z,10.450
2022-10-09T09:41:32.963Z,6.500
2022-10-09T09:42:35.230Z,7.450
2022-10-09T09:43:24.542Z,9.300
2022-10-09T09:44:31.221Z,9.150
2022-10-09T09:45:32.473Z,8.900
2022-10-09T09:46:55.780Z,10.000
2022-10-09T09:47:28.072Z,8.250
2022-10-09T09:48:35.874Z,9.650
2022-10-09T09:49:47.290Z,7.100
2022-10-09T09:50:46.152Z,7.400
2022-10-09T09:51:29.312Z,8.700
2022-10-09T09:52:25.767Z,9.350
2022-10-09T09:53:28.651Z,7.600
2022-10-09T09:54:37.982Z,8.250
2022-10-09T09:55:32.961Z,9.550
2022-10-09T09:56:59.760Z,8.800
2022-10-09T09:57:27.031Z,7.150
2022-10-09T09:58:22.660Z,8.500
2022-10-09T10:00:01.958Z,9.400
2022-10-09T10:00:29.823Z,7.900
2022-10-09T10:02:10.194Z,10.300
2022-10-09T10:02:24.877Z,8.350
2022-10-09T10:03:34.007Z,9.400
2022-10-09T10:04:22.673Z,9.700
2022-10-09T10:05:24.874Z,10.450
2022-10-09T10:06:46.279Z,8.300
2022-10-09T10:07:30.030Z,8.300
2022-10-09T10:08:27.852Z,7.800
2022-10-09T10:09:28.962Z,8.700
2022-10-09T10:10:26.970Z,8.200
2022-10-09T10:11:35.808Z,7.950
2022-10-09T10:12:46.443Z,8.300
2022-10-09T10:13:41.001Z,8.650
2022-10-09T10:14:30.535Z,8.750
2022-10-09T10:15:36.942Z,5.800
2022-10-09T10:16:41.173Z,7.550
2022-10-09T10:17:24.839Z,7.500
2022-10-09T10:18:25.264Z,7.300
2022-10-09T10:19:29.337Z,6.800
2022-10-09T10:20:23.989Z,7.050
2022-10-09T10:21:33.897Z,6.900
2022-10-09T10:22:31.960Z,5.800
2022-10-09T10:23:25.199Z,6.450
2022-10-09T10:24:32.805Z,8.000
2022-10-09T10:25:25.148Z,9.150
2022-10-09T10:26:20.854Z,7.100
2022-10-09T10:28:03.872Z,8.800
2022-10-09T10:28:27.728Z,7.250
2022-10-09T10:29:27.868Z,8.500
2022-10-09T10:30:29.907Z,7.700
2022-10-09T10:31:27.213Z,8.150
2022-10-09T10:32:41.928Z,7.300
2022-10-09T10:33:31.335Z,7.950
2022-10-09T10:34:48.519Z,7.550
2022-10-09T10:35:31.374Z,6.800
2022-10-09T10:36:40.931Z,6.400
2022-10-09T10:37:27.965Z,6.550
2022-10-09T10:38:26.427Z,7.000
2022-10-09T10:39:29.921Z,7.100
2022-10-09T10:40:32.288Z,7.500
2022-10-09T10:41:39.884Z,8.250
2022-10-09T10:43:35.742Z,5.300
2022-10-09T10:43:41.204Z,6.200
2022-10-09T10:45:34.296Z,7.700
2022-10-09T10:46:27.977Z,7.700
2022-10-09T10:47:20.829Z,7.000
2022-10-09T10:48:32.637Z,7.500
2022-10-09T10:49:27.507Z,7.200
2022-10-09T10:50:31.937Z,8.650
2022-10-09T10:52:11.063Z,7.950
2022-10-09T10:52:29.582Z,8.600
2022-10-09T10:54:22.005Z,6.800
2022-10-09T10:55:27.188Z,8.500
2022-10-09T10:56:29.188Z,6.700
2022-10-09T10:57:24.811Z,8.000
2022-10-09T10:58:34.701Z,8.200
2022-10-09T10:59:32.666Z,6.400
2022-10-09T11:00:25.988Z,7.000
2022-10-09T11:01:24.179Z,5.650
2022-10-09T11:02:32.691Z,6.750
2022-10-09T11:03:22.966Z,5.600
2022-10-09T11:04:26.034Z,6.700
2022-10-09T11:06:17.608Z,5.300
2022-10-09T11:06:28.400Z,8.800
2022-10-09T11:07:22.906Z,5.600
2022-10-09T11:08:27.985Z,5.400
2022-10-09T11:09:35.884Z,7.350
2022-10-09T11:10:29.005Z,7.800
2022-10-09T11:11:23.322Z,6.950
2022-10-09T11:12:47.340Z,6.600
2022-10-09T11:13:31.706Z,6.050
2022-10-09T11:14:26.751Z,6.400
2022-10-09T11:15:23.276Z,6.600
2022-10-09T11:16:30.783Z,7.400
2022-10-09T11:17:34.110Z,7.300
2022-10-09T11:18:23.020Z,7.000
2022-10-09T11:19:32.479Z,6.300
2022-10-09T11:20:35.868Z,9.200
2022-10-09T11:21:39.608Z,6.700
2022-10-09T11:22:35.524Z,6.500
2022-10-09T11:23:26.780Z,6.800
2022-10-09T11:24:28.901Z,7.900
2022-10-09T11:25:29.381Z,6.200
2022-10-09T11:26:36.821Z,6.350
2022-10-09T11:27:31.907Z,6.500
2022-10-09T11:28:36.429Z,5.700
2022-10-09T11:29:43.901Z,5.600
2022-10-09T11:30:43.151Z,5.900
2022-10-09T11:31:31.010Z,6.800
2022-10-09T11:32:26.310Z,6.000
2022-10-09T11:33:23.030Z,6.750
2022-10-09T11:34:26.409Z,7.200
2022-10-09T11:35:28.778Z,6.500
2022-10-09T11:36:26.589Z,5.500
2022-10-09T11:37:40.242Z,5.300
2022-10-09T11:38:28.097Z,6.000
2022-10-09T11:39:23.154Z,6.800
2022-10-09T11:40:28.787Z,6.250
2022-10-09T11:41:20.109Z,6.650
2022-10-09T11:42:24.502Z,5.700
2022-10-09T11:43:21.107Z,5.450
2022-10-09T11:44:32.873Z,7.200
2022-10-09T11:45:28.636Z,5.300
2022-10-09T11:46:27.970Z,5.900
2022-10-09T11:48:04.276Z,6.550
2022-10-09T11:48:27.699Z,7.300
2022-10-09T11:49:24.980Z,5.700
2022-10-09T11:50:23.693Z,7.950
2022-10-09T11:51:49.978Z,6.800
2022-10-09T11:52:31.290Z,7.600
2022-10-09T11:53:28.544Z,7.400
2022-10-09T11:55:03.909Z,6.200
2022-10-09T11:55:33.046Z,5.550
2022-10-09T11:56:21.681Z,6.600
2022-10-09T11:57:23.321Z,6.250
2022-10-09T11:58:33.013Z,6.900
2022-10-09T11:59:31.663Z,7.300
2022-10-09T12:00:26.022Z,5.200
2022-10-09T12:01:23.247Z,6.500
2022-10-09T12:02:45.413Z,6.900
2022-10-09T12:03:45.340Z,5.800
2022-10-09T12:04:50.024Z,5.000
2022-10-09T12:05:23.033Z,6.900
2022-10-09T12:06:31.161Z,5.950
2022-10-09T12:07:22.779Z,4.950
2022-10-09T12:08:36.650Z,4.800
2022-10-09T12:09:32.661Z,5.200
2022-10-09T12:10:30.484Z,4.600
2022-10-09T12:11:22.976Z,6.500
2022-10-09T12:12:27.330Z,5.600
2022-10-09T12:13:33.366Z,6.200
2022-10-09T12:14:55.641Z,6.600
2022-10-09T12:15:44.000Z,6.900
2022-10-09T12:16:27.286Z,5.600
2022-10-09T12:17:26.471Z,4.950
2022-10-09T12:18:22.436Z,6.800
2022-10-09T12:19:26.736Z,4.800
2022-10-09T12:20:29.370Z,5.600
2022-10-09T12:21:24.273Z,7.100
2022-10-09T12:22:41.215Z,6.000
2022-10-09T12:23:26.569Z,5.500
2022-10-09T12:24:25.024Z,6.900
2022-10-09T12:25:22.803Z,4.900
2022-10-09T12:26:24.057Z,6.000
2022-10-09T12:27:31.086Z,6.100
2022-10-09T12:28:58.833Z,5.250
2022-10-09T12:29:40.945Z,5.000
2022-10-09T12:30:28.137Z,6.400
2022-10-09T12:31:37.025Z,7.850
2022-10-09T12:32:20.599Z,5.600
2022-10-09T12:33:37.286Z,5.100
2022-10-09T12:34:23.664Z,4.850
2022-10-09T12:35:23.904Z,6.500
2022-10-09T12:36:27.939Z,5.900
2022-10-09T12:37:43.219Z,6.100
2022-10-09T12:38:58.477Z,6.700
2022-10-09T12:39:25.346Z,5.200
2022-10-09T12:40:32.311Z,6.000
2022-10-09T12:41:43.972Z,6.050
2022-10-09T12:42:50.061Z,4.800
2022-10-09T12:43:41.812Z,6.500
2022-10-09T12:44:34.078Z,5.700
2022-10-09T12:45:24.725Z,5.800
2022-10-09T12:46:32.192Z,5.950
2022-10-09T12:47:27.791Z,6.200
2022-10-09T12:48:37.374Z,6.300
2022-10-09T12:49:26.452Z,6.700
2022-10-09T12:50:37.357Z,6.600
2022-10-09T12:51:56.243Z,5.400
2022-10-09T12:52:23.935Z,5.800
2022-10-09T12:53:23.983Z,6.800
2022-10-09T12:54:28.798Z,6.300
2022-10-09T12:55:28.168Z,6.950
2022-10-09T12:56:26.866Z,6.600
2022-10-09T12:57:25.289Z,5.200
2022-10-09T12:58:31.792Z,4.900
2022-10-09T12:59:35.924Z,7.200
2022-10-09T13:00:26.695Z,6.300
2022-10-09T13:01:39.629Z,5.550
2022-10-09T13:02:25.842Z,6.900
2022-10-09T13:03:28.182Z,6.000
2022-10-09T13:04:50.528Z,6.100
2022-10-09T13:05:38.002Z,5.800
2022-10-09T13:06:28.598Z,6.500
2022-10-09T13:07:20.881Z,6.350
2022-10-09T13:08:37.426Z,6.700
2022-10-09T13:09:34.253Z,6.850
2022-10-09T13:10:31.192Z,6.800
2022-10-09T13:11:58.227Z,6.350
2022-10-09T13:12:21.312Z,7.100
2022-10-09T13:13:24.841Z,5.700
2022-10-09T13:14:24.702Z,6.300
2022-10-09T13:15:30.183Z,6.100
2022-10-09T13:16:32.197Z,5.900
2022-10-09T13:17:29.844Z,5.200
2022-10-09T13:18:36.415Z,6.250
2022-10-09T13:19:26.815Z,6.100
2022-10-09T13:20:31.378Z,7.100
2022-10-09T13:21:25.570Z,5.300
2022-10-09T13:22:43.900Z,6.450
2022-10-09T13:23:40.121Z,7.300
2022-10-09T13:24:29.671Z,5.400
2022-10-09T13:25:33.023Z,6.050
2022-10-09T13:26:31.763Z,5.850
2022-10-09T13:27:26.586Z,6.150
2022-10-09T13:28:50.883Z,5.100
2022-10-09T13:29:51.363Z,6.900
2022-10-09T13:31:04.311Z,7.500
2022-10-09T13:31:29.578Z,5.950
2022-10-09T13:32:23.543Z,5.200
2022-10-09T13:33:31.288Z,5.600
2022-10-09T13:34:27.888Z,4.600
2022-10-09T13:35:27.217Z,5.850
2022-10-09T13:36:35.217Z,5.200
2022-10-09T13:37:32.217Z,6.500
2022-10-09T13:38:29.246Z,6.000
2022-10-09T13:39:21.007Z,5.000
2022-10-09T13:40:32.778Z,5.800
2022-10-09T13:41:25.504Z,5.700
2022-10-09T13:42:27.215Z,5.450
2022-10-09T13:44:13.573Z,5.500
2022-10-09T13:44:29.088Z,6.150
2022-10-09T13:45:30.847Z,6.100
2022-10-09T13:46:26.019Z,6.250
2022-10-09T13:47:26.948Z,6.600
2022-10-09T13:48:41.205Z,7.750
2022-10-09T13:49:25.463Z,5.800
2022-10-09T13:50:20.978Z,5.050
2022-10-09T13:51:28.005Z,5.400
2022-10-09T13:52:29.798Z,4.200
2022-10-09T13:54:17.760Z,4.700
2022-10-09T13:54:32.366Z,4.900
2022-10-09T13:55:26.399Z,5.500
2022-10-09T13:56:53.475Z,5.800
2022-10-09T13:57:21.880Z,6.600
2022-10-09T13:58:29.245Z,4.950
2022-10-09T13:59:22.952Z,6.300
2022-10-09T14:00:22.867Z,5.750
2022-10-09T14:01:32.907Z,6.200
2022-10-09T14:02:29.415Z,6.000
2022-10-09T14:03:27.069Z,5.900
2022-10-09T14:04:28.560Z,6.600
2022-10-09T14:05:34.026Z,5.950
2022-10-09T14:06:29.476Z,6.600
2022-10-09T14:07:36.110Z,5.300
2022-10-09T14:08:33.298Z,6.300
2022-10-09T14:09:28.541Z,4.900
2022-10-09T14:10:25.358Z,5.400
2022-10-09T14:12:03.605Z,5.050
2022-10-09T14:12:34.463Z,5.500
2022-10-09T14:13:25.202Z,5.700
2022-10-09T14:14:42.574Z,5.200
2022-10-09T14:15:25.426Z,7.600
2022-10-09T14:16:24.811Z,4.650
2022-10-09T14:17:27.532Z,5.100
2022-10-09T14:18:31.137Z,4.750
2022-10-09T14:19:37.178Z,5.000
2022-10-09T14:20:29.998Z,4.300
2022-10-09T14:21:38.340Z,4.950
2022-10-09T14:22:29.215Z,6.100
2022-10-09T14:23:24.707Z,4.900
2022-10-09T14:24:21.971Z,6.200
2022-10-09T14:25:24.446Z,5.600
2022-10-09T14:26:24.944Z,4.950
2022-10-09T14:27:42.704Z,4.300
2022-10-09T14:28:48.749Z,5.550
2022-10-09T14:29:40.604Z,5.100
2022-10-09T14:30:24.933Z,5.400
2022-10-09T14:31:24.627Z,5.550
2022-10-09T14:32:29.650Z,4.500
2022-10-09T14:33:27.117Z,5.650
2022-10-09T14:34:25.322Z,3.600
2022-10-09T14:35:28.812Z,4.050
2022-10-09T14:36:33.487Z,4.750
2022-10-09T14:37:41.232Z,5.400
2022-10-09T14:38:30.624Z,4.450
2022-10-09T14:39:31.181Z,7.500
2022-10-09T14:40:26.495Z,5.850
2022-10-09T14:42:14.928Z,5.700
2022-10-09T14:42:36.581Z,5.500
2022-10-09T14:43:25.227Z,4.700
2022-10-09T14:44:21.493Z,5.900
2022-10-09T14:45:30.659Z,5.550
2022-10-09T14:46:43.121Z,5.600
2022-10-09T14:47:28.227Z,4.300
2022-10-09T14:48:24.227Z,4.900
2022-10-09T14:49:39.727Z,5.200
2022-10-09T14:50:29.370Z,4.300
2022-10-09T14:51:37.108Z,4.800
2022-10-09T14:52:53.076Z,5.700
2022-10-09T14:53:48.956Z,6.000
2022-10-09T14:54:29.516Z,4.800
2022-10-09T14:55:25.388Z,4.700
2022-10-09T14:56:40.598Z,5.750
2022-10-09T14:57:37.426Z,5.800
2022-10-09T14:58:31.152Z,5.250
2022-10-09T14:59:21.239Z,3.800
2022-10-09T15:00:38.157Z,5.500
2022-10-09T15:01:32.358Z,5.800
2022-10-09T15:02:27.266Z,4.800
2022-10-09T15:03:28.484Z,4.500
2022-10-09T15:04:34.147Z,4.250
2022-10-09T15:05:32.840Z,4.900
2022-10-09T15:06:24.547Z,4.850
2022-10-09T15:07:35.038Z,5.000
2022-10-09T15:08:31.416Z,4.700
2022-10-09T15:09:29.366Z,3.850
2022-10-09T15:11:06.334Z,5.700
2022-10-09T15:11:34.020Z,5.300
2022-10-09T15:12:26.560Z,6.000
2022-10-09T15:13:24.026Z,5.750
2022-10-09T15:14:30.756Z,3.300
2022-10-09T15:15:32.564Z,4.900
2022-10-09T15:16:29.619Z,4.600
2022-10-09T15:17:32.538Z,4.800
2022-10-09T15:18:24.444Z,4.450
2022-10-09T15:19:29.153Z,5.150
2022-10-09T15:20:25.140Z,4.200
2022-10-09T15:21:22.520Z,4.500
2022-10-09T15:22:35.670Z,3.600
2022-10-09T15:23:59.109Z,6.500
2022-10-09T15:24:36.937Z,5.050
2022-10-09T15:26:25.285Z,5.900
2022-10-09T15:26:32.176Z,5.650
2022-10-09T15:28:28.846Z,4.800
2022-10-09T15:29:26.707Z,4.700
2022-10-09T15:30:36.649Z,4.350
2022-10-09T15:31:26.897Z,4.900
2022-10-09T15:32:29.653Z,4.600
2022-10-09T15:33:29.992Z,5.200
2022-10-09T15:34:23.384Z,4.800
2022-10-09T15:35:38.611Z,6.500
2022-10-09T15:36:26.028Z,4.900
2022-10-09T15:37:22.879Z,4.150
2022-10-09T15:38:30.424Z,5.200
2022-10-09T15:39:34.744Z,3.950
2022-10-09T15:41:41.316Z,5.100
2022-10-09T15:41:48.620Z,4.450
2022-10-09T15:43:29.669Z,5.600
2022-10-09T15:44:23.610Z,4.600
2022-10-09T15:45:27.755Z,5.000
2022-10-09T15:46:33.137Z,5.600
2022-10-09T15:48:03.405Z,6.300
2022-10-09T15:48:49.352Z,4.300
2022-10-09T15:49:26.723Z,5.500
2022-10-09T15:50:27.112Z,4.200
2022-10-09T15:51:25.275Z,4.350
2022-10-09T15:52:34.117Z,4.650
2022-10-09T15:53:34.909Z,5.900
2022-10-09T15:54:39.866Z,5.850
2022-10-09T15:55:30.523Z,4.300
2022-10-09T15:56:37.325Z,7.400
2022-10-09T15:57:45.829Z,5.100
2022-10-09T15:58:52.888Z,5.000
2022-10-09T15:59:29.020Z,5.600
2022-10-09T16:00:43.642Z,5.300
2022-10-09T16:01:36.336Z,4.250
2022-10-09T16:02:25.735Z,3.950
2022-10-09T16:03:35.253Z,5.050
2022-10-09T16:04:26.889Z,3.700
2022-10-09T16:05:44.348Z,4.900
2022-10-09T16:06:36.612Z,10.600
2022-10-09T16:07:23.280Z,4.900
2022-10-09T16:08:26.903Z,5.300
2022-10-09T16:09:34.921Z,6.350
2022-10-09T16:10:43.040Z,5.400
2022-10-09T16:11:26.564Z,4.000
2022-10-09T16:12:22.900Z,4.400